createdAt,value
2023-02-03T00:01:34.472Z,22.85
2023-02-03T00:06:36.052Z,22.70
2023-02-03T00:11:37.832Z,19.23
2023-02-03T00:16:39.458Z,15.80
2023-02-03T00:21:40.996Z,19.50
2023-02-03T00:26:43.645Z,25.25
2023-02-03T00:31:45.262Z,26.75
2023-02-03T00:36:48.140Z,20.80
2023-02-03T00:41:49.696Z,17.95
2023-02-03T00:46:51.187Z,21.55
2023-02-03T00:51:53.067Z,22.15
2023-02-03T00:56:54.541Z,18.77
2023-02-03T01:01:56.051Z,16.00
2023-02-03T01:06:59.808Z,13.65
2023-02-03T01:12:01.410Z,17.55
2023-02-03T01:17:02.938Z,16.52
2023-02-03T01:22:04.491Z,21.83
2023-02-03T01:27:06.276Z,13.52
2023-02-03T01:32:07.818Z,15.93
2023-02-03T01:37:09.327Z,11.50
2023-02-03T01:42:15.367Z,15.05
2023-02-03T01:47:34.345Z,17.33
2023-02-03T01:52:37.250Z,16.33
2023-02-03T01:57:47.189Z,15.38
2023-02-03T02:02:50.151Z,14.98
2023-02-03T02:07:51.751Z,16.25
2023-02-03T02:12:57.300Z,14.25
2023-02-03T02:18:24.708Z,19.70
2023-02-03T02:23:42.313Z,14.27
2023-02-03T02:28:43.754Z,14.98
2023-02-03T02:34:14.177Z,20.45
2023-02-03T02:39:34.776Z,17.63
2023-02-03T02:44:41.257Z,14.52
2023-02-03T02:49:59.182Z,14.52
2023-02-03T02:55:07.693Z,13.52
2023-02-03T03:00:09.752Z,16.98
2023-02-03T03:05:12.509Z,19.38
2023-02-03T03:10:18.847Z,18.77
2023-02-03T03:15:26.726Z,19.95
2023-02-03T03:20:30.526Z,15.30
2023-02-03T03:25:39.337Z,13.73
2023-02-03T03:30:41.109Z,18.98
2023-02-03T03:36:07.992Z,21.23
2023-02-03T03:41:25.145Z,19.55
2023-02-03T03:46:30.072Z,15.87
2023-02-03T03:51:36.972Z,16.92
2023-02-03T03:57:03.470Z,19.20
2023-02-03T04:02:05.401Z,21.77
2023-02-03T04:07:06.976Z,15.43
2023-02-03T04:12:24.867Z,16.25
2023-02-03T04:17:26.365Z,13.85
2023-02-03T04:22:27.855Z,21.00
2023-02-03T04:27:29.395Z,22.33
2023-02-03T04:32:31.123Z,15.35
2023-02-03T04:37:32.813Z,17.88
2023-02-03T04:42:36.266Z,13.32
2023-02-03T04:47:39.304Z,14.90
2023-02-03T04:52:40.884Z,16.05
2023-02-03T04:57:42.419Z,20.85
2023-02-03T05:02:43.965Z,17.10
2023-02-03T05:07:45.484Z,25.40
2023-02-03T05:12:47.042Z,16.85
2023-02-03T05:17:48.838Z,21.70
2023-02-03T05:22:50.375Z,13.15
2023-02-03T05:27:51.905Z,17.75
2023-02-03T05:32:53.475Z,17.17
2023-02-03T05:37:54.951Z,16.13
2023-02-03T05:42:56.445Z,19.63
2023-02-03T05:47:57.970Z,15.55
2023-02-03T05:53:00.403Z,16.27
2023-02-03T05:58:01.893Z,21.77
2023-02-03T06:03:04.190Z,20.88
2023-02-03T06:08:05.699Z,17.92
2023-02-03T06:13:16.040Z,26.58
2023-02-03T06:18:17.526Z,21.92
2023-02-03T06:23:19.329Z,20.08
2023-02-03T06:28:20.918Z,20.88
2023-02-03T06:33:22.529Z,18.30
2023-02-03T06:38:24.099Z,17.45
2023-02-03T06:43:25.680Z,14.18
2023-02-03T06:48:27.175Z,16.45
2023-02-03T06:53:32.079Z,13.23
2023-02-03T06:58:33.561Z,18.90
2023-02-03T07:03:35.039Z,15.35
2023-02-03T07:08:36.515Z,12.70
2023-02-03T07:13:38.003Z,18.70
2023-02-03T07:18:48.048Z,16.30
2023-02-03T07:23:50.724Z,18.08
2023-02-03T07:28:52.595Z,22.95
2023-02-03T07:33:54.062Z,13.93
2023-02-03T07:38:55.573Z,13.35
2023-02-03T07:43:57.108Z,16.13
2023-02-03T07:48:58.605Z,12.07
2023-02-03T07:54:00.182Z,19.73
2023-02-03T07:59:04.511Z,18.85
2023-02-03T08:04:06.000Z,14.00
2023-02-03T08:09:07.470Z,21.35
2023-02-03T08:14:08.986Z,18.67
2023-02-03T08:19:10.626Z,17.63
2023-02-03T08:24:12.182Z,23.98
2023-02-03T08:29:13.626Z,19.52
2023-02-03T08:34:15.160Z,20.05
2023-02-03T08:39:16.694Z,18.58
2023-02-03T08:44:19.771Z,26.80
2023-02-03T08:49:21.338Z,20.30
2023-02-03T08:54:23.344Z,28.08
2023-02-03T08:59:24.966Z,21.13
2023-02-03T09:04:26.485Z,22.48
2023-02-03T09:09:29.104Z,20.33
2023-02-03T09:14:32.971Z,19.98
2023-02-03T09:19:36.510Z,16.45
2023-02-03T09:24:38.271Z,17.23
2023-02-03T09:29:39.809Z,21.13
2023-02-03T09:34:41.394Z,18.67
2023-02-03T09:39:42.951Z,17.55
2023-02-03T09:44:49.017Z,19.77
2023-02-03T09:49:54.061Z,25.98
2023-02-03T09:55:13.363Z,20.10
2023-02-03T10:00:24.103Z,24.58
2023-02-03T10:05:36.244Z,24.75
2023-02-03T10:10:42.190Z,24.00
2023-02-03T10:16:01.912Z,30.33
2023-02-03T10:21:27.449Z,27.75
2023-02-03T10:26:29.758Z,16.23
2023-02-03T10:31:35.354Z,24.90
2023-02-03T10:36:56.207Z,24.50
2023-02-03T10:41:58.313Z,22.75
2023-02-03T10:46:59.904Z,31.85
2023-02-03T10:52:04.839Z,25.30
2023-02-03T10:57:12.575Z,26.13
2023-02-03T11:07:30.827Z,24.13
2023-02-03T11:12:32.457Z,20.98
2023-02-03T11:17:36.485Z,25.23
2023-02-03T11:22:40.321Z,22.00
2023-02-03T11:27:42.449Z,23.58
2023-02-03T11:32:46.483Z,20.73
2023-02-03T11:37:51.012Z,22.45
2023-02-03T11:42:52.460Z,28.90
2023-02-03T11:48:00.333Z,22.25
2023-02-03T11:53:14.006Z,30.90
2023-02-03T11:58:49.189Z,26.75
2023-02-03T12:03:59.613Z,30.58
2023-02-03T12:09:24.447Z,29.92
2023-02-03T12:14:36.613Z,28.65
2023-02-03T12:20:12.764Z,31.35
2023-02-03T12:25:27.700Z,34.60
2023-02-03T12:30:35.878Z,35.72
2023-02-03T12:35:42.747Z,36.38
2023-02-03T12:40:54.172Z,34.83
2023-02-03T12:46:07.611Z,34.72
2023-02-03T12:51:15.734Z,37.38
2023-02-03T12:56:25.640Z,33.70
2023-02-03T13:01:35.008Z,39.28
2023-02-03T13:06:39.499Z,34.00
2023-02-03T13:11:48.505Z,38.90
2023-02-03T13:16:55.557Z,45.28
2023-02-03T13:21:57.209Z,43.25
2023-02-03T13:27:30.600Z,41.40
2023-02-03T13:32:59.663Z,46.35
2023-02-03T13:38:38.706Z,39.72
2023-02-03T13:43:45.675Z,45.33
2023-02-03T13:48:47.751Z,41.70
2023-02-03T13:53:50.814Z,38.60
2023-02-03T13:59:15.653Z,37.72
2023-02-03T14:04:26.048Z,44.22
2023-02-03T14:09:30.442Z,52.17
2023-02-03T14:14:34.931Z,57.85
2023-02-03T14:19:51.890Z,38.65
2023-02-03T14:24:56.574Z,45.93
2023-02-03T14:30:16.840Z,48.60
2023-02-03T14:35:42.564Z,46.83
2023-02-03T14:40:59.932Z,50.92
2023-02-03T14:46:10.281Z,32.47
2023-02-03T14:51:38.980Z,44.47
2023-02-03T14:57:06.486Z,43.10
2023-02-03T15:02:17.593Z,35.33
2023-02-03T15:07:45.263Z,43.38
2023-02-03T15:12:55.418Z,37.65
2023-02-03T15:18:01.974Z,42.33
2023-02-03T15:23:17.599Z,42.05
2023-02-03T15:28:23.431Z,52.22
2023-02-03T15:33:25.392Z,55.17
2023-02-03T15:38:36.994Z,48.10
2023-02-03T15:49:14.193Z,52.88
2023-02-03T15:54:22.968Z,49.47
2023-02-03T16:04:33.669Z,41.33
2023-02-03T16:09:41.809Z,48.97
2023-02-03T16:14:44.344Z,48.10
2023-02-03T16:19:51.287Z,55.95
2023-02-03T16:24:52.821Z,50.73
2023-02-03T16:30:33.537Z,43.67
2023-02-03T16:35:53.366Z,49.00
2023-02-03T16:41:13.745Z,39.58
2023-02-03T16:46:33.528Z,42.90
2023-02-03T16:51:41.623Z,50.30
2023-02-03T16:56:43.272Z,54.85
2023-02-03T17:01:44.833Z,54.13
2023-02-03T17:06:51.021Z,51.45
2023-02-03T17:11:53.759Z,53.15
2023-02-03T17:16:55.439Z,54.33
2023-02-03T17:21:56.924Z,46.13
2023-02-03T17:26:59.126Z,48.33
2023-02-03T17:32:00.921Z,47.85
2023-02-03T17:37:02.546Z,48.58
2023-02-03T17:58:01.008Z,52.63
2023-02-03T18:03:02.960Z,45.17
2023-02-03T18:08:12.425Z,45.83
2023-02-03T18:13:18.378Z,52.45
2023-02-03T18:18:21.330Z,51.40
2023-02-03T18:23:22.787Z,45.92
2023-02-03T18:28:24.611Z,41.75
2023-02-03T18:33:26.388Z,54.30
2023-02-03T18:38:30.518Z,48.65
2023-02-03T18:43:32.258Z,52.90
2023-02-03T18:48:33.751Z,60.03
2023-02-03T18:53:36.109Z,39.25
2023-02-03T18:58:37.696Z,44.75
2023-02-03T19:03:39.288Z,48.05
2023-02-03T19:08:40.754Z,43.80
2023-02-03T19:13:42.834Z,39.58
2023-02-03T19:18:45.352Z,49.58
2023-02-03T19:23:47.175Z,41.78
2023-02-03T19:28:48.912Z,44.38
2023-02-03T19:33:50.716Z,48.20
2023-02-03T19:38:52.202Z,49.28
2023-02-03T19:43:53.918Z,40.28
2023-02-03T19:48:55.506Z,49.05
2023-02-03T19:53:58.841Z,44.30
2023-02-03T19:59:00.391Z,41.97
2023-02-03T20:04:02.096Z,39.28
2023-02-03T20:09:06.052Z,44.22
2023-02-03T20:14:07.562Z,50.25
2023-02-03T20:19:09.070Z,45.10
2023-02-03T20:24:10.866Z,34.40
2023-02-03T20:29:12.322Z,44.90
2023-02-03T20:34:14.118Z,37.38
2023-02-03T20:39:20.004Z,39.97
2023-02-03T20:44:21.579Z,43.75
2023-02-03T20:49:23.166Z,43.63
2023-02-03T20:54:24.713Z,43.17
2023-02-03T20:59:26.249Z,46.08
2023-02-03T21:04:46.485Z,47.58
2023-02-03T21:09:48.026Z,41.75
2023-02-03T21:14:49.737Z,46.50
2023-02-03T21:19:52.332Z,44.28
2023-02-03T21:24:54.944Z,50.72
2023-02-03T21:30:01.484Z,47.97
2023-02-03T21:35:05.363Z,37.58
2023-02-03T21:40:25.384Z,34.67
2023-02-03T21:45:28.449Z,38.45
2023-02-03T21:50:31.029Z,33.67
2023-02-03T21:55:32.816Z,31.80
2023-02-03T22:00:47.886Z,40.15
2023-02-03T22:05:51.321Z,43.08
2023-02-03T22:10:52.811Z,39.00
2023-02-03T22:15:54.396Z,33.80
2023-02-03T22:20:55.968Z,33.92
2023-02-03T22:25:57.535Z,30.55
2023-02-03T22:30:59.180Z,36.28
2023-02-03T22:36:00.966Z,31.30
2023-02-03T22:41:03.115Z,24.05
2023-02-03T22:46:06.754Z,33.25
2023-02-03T22:51:08.542Z,34.35
2023-02-03T22:56:10.102Z,36.05
2023-02-03T23:01:12.231Z,23.92
2023-02-03T23:06:13.785Z,35.70
2023-02-03T23:11:15.264Z,28.77
2023-02-03T23:16:16.929Z,27.83
2023-02-03T23:21:18.562Z,34.35
2023-02-03T23:26:20.087Z,36.08
2023-02-03T23:31:21.689Z,37.45
2023-02-03T23:36:23.264Z,46.13
2023-02-03T23:41:25.040Z,34.83
2023-02-03T23:46:26.882Z,37.35
2023-02-03T23:51:28.517Z,41.95
2023-02-03T23:56:30.128Z,37.38
